Samsun, Turkey
Current Conditions -  °F | °C
As of 5:50 AM on Saturday 25 Oct 2014 (Local Time) from LTFH Reporting Station
Broken Clouds Broken Clouds  
Wind Chill: 57°   Ceiling: 10000
Heat Index: 57°   Visibility: 6mi
Dew Point: 57°   Wind: 3mph
Humidity: 100%   Direction: 70°ENE
Pressure: 30"   Gusts: NA
Location:  41.29°N, 36.33°E
Report Text: LTFH 250250Z 07003KT 9999 SCT033 BKN100 14/14 Q1016 NOSIG
Loading
Personal Weather Stations






























Interactive Weather Map
Tropical Storm Tracking
New forecast layout! Learn more

10-Day Weather Forecast

Advertisements
Track Severe Weather on mobile